createdAt,value
2018-07-07T00:01:11.556Z,4.03
2018-07-07T00:03:40.128Z,4.57
2018-07-07T00:06:08.704Z,4.30
2018-07-07T00:08:37.327Z,4.03
2018-07-07T00:11:06.110Z,3.77
2018-07-07T00:13:34.692Z,3.97
2018-07-07T00:16:03.226Z,4.13
2018-07-07T00:18:31.824Z,4.00
2018-07-07T00:21:00.388Z,4.00
2018-07-07T00:23:28.952Z,4.37
2018-07-07T00:25:57.513Z,4.30
2018-07-07T00:28:26.058Z,4.13
2018-07-07T00:30:54.584Z,4.53
2018-07-07T00:33:23.147Z,4.10
2018-07-07T00:35:51.971Z,3.90
2018-07-07T00:38:20.595Z,4.00
2018-07-07T00:40:49.191Z,4.87
2018-07-07T00:43:17.740Z,4.60
2018-07-07T00:45:46.372Z,4.77
2018-07-07T00:48:14.979Z,5.00
2018-07-07T00:50:43.549Z,5.07
2018-07-07T00:53:12.109Z,5.20
2018-07-07T00:55:40.663Z,5.27
2018-07-07T00:58:09.235Z,5.17
2018-07-07T01:00:45.349Z,4.73
2018-07-07T01:03:13.957Z,5.70
2018-07-07T01:05:45.000Z,5.27
2018-07-07T01:08:13.983Z,5.13
2018-07-07T01:10:42.645Z,4.80
2018-07-07T01:13:11.161Z,5.80
2018-07-07T01:15:39.896Z,5.50
2018-07-07T01:18:08.803Z,5.90
2018-07-07T01:20:37.339Z,5.30
2018-07-07T01:23:05.868Z,5.77
2018-07-07T01:25:34.447Z,5.20
2018-07-07T01:28:03.000Z,6.07
2018-07-07T01:30:31.570Z,5.60
2018-07-07T01:33:00.148Z,5.60
2018-07-07T01:35:28.724Z,5.50
2018-07-07T01:37:57.345Z,6.13
2018-07-07T01:40:25.911Z,5.77
2018-07-07T01:42:54.455Z,6.30
2018-07-07T01:45:22.981Z,6.10
2018-07-07T01:47:51.558Z,6.67
2018-07-07T01:50:20.108Z,5.80
2018-07-07T01:52:48.745Z,6.33
2018-07-07T01:55:17.304Z,5.80
2018-07-07T01:57:45.931Z,5.87
2018-07-07T02:00:14.500Z,5.93
2018-07-07T02:02:43.117Z,6.10
2018-07-07T02:05:11.691Z,5.50
2018-07-07T02:07:40.275Z,4.73
2018-07-07T02:10:08.825Z,5.80
2018-07-07T02:12:37.450Z,5.77
2018-07-07T02:15:06.084Z,5.27
2018-07-07T02:17:34.642Z,5.67
2018-07-07T02:20:03.349Z,5.83
2018-07-07T02:22:31.946Z,5.63
2018-07-07T02:25:00.524Z,6.20
2018-07-07T02:27:29.108Z,5.27
2018-07-07T02:29:57.315Z,5.57
2018-07-07T02:32:25.900Z,6.13
2018-07-07T02:34:54.468Z,6.20
2018-07-07T02:37:23.036Z,5.57
2018-07-07T02:39:51.641Z,5.93
2018-07-07T02:42:20.160Z,6.07
2018-07-07T02:44:48.722Z,5.80
2018-07-07T02:47:17.301Z,6.00
2018-07-07T02:49:45.868Z,6.33
2018-07-07T02:52:14.457Z,5.73
2018-07-07T02:54:43.032Z,6.40
2018-07-07T02:57:11.590Z,7.03
2018-07-07T02:59:40.123Z,6.73
2018-07-07T03:02:08.783Z,7.27
2018-07-07T03:04:37.346Z,7.23
2018-07-07T03:07:06.006Z,6.57
2018-07-07T03:09:34.549Z,7.40
2018-07-07T03:12:03.160Z,6.70
2018-07-07T03:14:31.824Z,7.00
2018-07-07T03:17:00.433Z,7.50
2018-07-07T03:19:28.992Z,6.37
2018-07-07T03:21:57.540Z,7.03
2018-07-07T03:24:26.108Z,7.33
2018-07-07T03:26:54.658Z,6.70
2018-07-07T03:29:23.219Z,7.80
2018-07-07T03:31:51.787Z,6.90
2018-07-07T03:34:20.307Z,6.57
2018-07-07T03:36:48.847Z,7.20
2018-07-07T03:39:17.360Z,6.40
2018-07-07T03:41:45.932Z,6.57
2018-07-07T03:44:14.439Z,6.90
2018-07-07T03:46:42.998Z,7.13
2018-07-07T03:49:11.553Z,6.37
2018-07-07T03:51:40.159Z,6.77
2018-07-07T03:54:08.685Z,7.77
2018-07-07T03:56:37.237Z,6.57
2018-07-07T03:59:05.775Z,6.20
2018-07-07T04:01:34.338Z,7.27
2018-07-07T04:04:02.843Z,7.10
2018-07-07T04:06:31.442Z,6.27
2018-07-07T04:09:00.012Z,6.80
2018-07-07T04:11:28.666Z,6.43
2018-07-07T04:13:57.155Z,7.10
2018-07-07T04:16:25.713Z,6.87
2018-07-07T04:18:54.250Z,6.27
2018-07-07T04:21:22.824Z,6.07
2018-07-07T04:23:51.358Z,6.23
2018-07-07T04:26:19.938Z,6.00
2018-07-07T04:28:48.488Z,6.13
2018-07-07T04:31:17.024Z,5.90
2018-07-07T04:33:45.553Z,5.87
2018-07-07T04:36:14.183Z,6.47
2018-07-07T04:38:42.704Z,5.90
2018-07-07T04:41:11.231Z,6.00
2018-07-07T04:43:39.799Z,6.20
2018-07-07T04:46:08.372Z,5.50
2018-07-07T04:48:36.920Z,6.10
2018-07-07T04:51:05.490Z,5.83
2018-07-07T04:53:34.070Z,6.17
2018-07-07T04:56:02.599Z,5.63
2018-07-07T04:58:31.159Z,6.70
2018-07-07T05:00:59.920Z,5.93
2018-07-07T05:03:28.465Z,6.33
2018-07-07T05:05:57.003Z,6.40
2018-07-07T05:08:25.520Z,6.80
2018-07-07T05:10:54.102Z,6.83
2018-07-07T05:13:22.630Z,7.70
2018-07-07T05:15:51.198Z,6.97
2018-07-07T05:18:19.739Z,6.53
2018-07-07T05:20:48.299Z,7.33
2018-07-07T05:23:16.849Z,7.83
2018-07-07T05:25:45.411Z,7.77
2018-07-07T05:28:13.987Z,7.57
2018-07-07T05:30:42.514Z,7.37
2018-07-07T05:33:11.077Z,7.13
2018-07-07T05:35:39.656Z,7.40
2018-07-07T05:38:08.166Z,7.83
2018-07-07T05:40:36.833Z,6.97
2018-07-07T05:43:05.638Z,7.23
2018-07-07T05:45:34.163Z,7.77
2018-07-07T05:48:02.716Z,8.17
2018-07-07T05:50:31.334Z,7.60
2018-07-07T05:52:59.886Z,7.43
2018-07-07T05:55:28.418Z,6.37
2018-07-07T05:57:57.019Z,7.23
2018-07-07T06:00:25.553Z,7.40
2018-07-07T06:02:54.093Z,7.67
2018-07-07T06:05:22.672Z,7.40
2018-07-07T06:07:51.237Z,7.00
2018-07-07T06:10:19.794Z,6.80
2018-07-07T06:12:48.330Z,7.50
2018-07-07T06:15:16.948Z,7.53
2018-07-07T06:17:45.485Z,8.17
2018-07-07T06:20:14.055Z,7.67
2018-07-07T06:22:42.717Z,7.70
2018-07-07T06:25:11.380Z,7.40
2018-07-07T06:27:39.922Z,7.40
2018-07-07T06:30:08.533Z,6.93
2018-07-07T06:32:37.116Z,7.10
2018-07-07T06:35:05.674Z,7.37
2018-07-07T06:37:34.279Z,7.37
2018-07-07T06:40:02.893Z,7.67
2018-07-07T06:42:31.437Z,7.40
2018-07-07T06:44:59.996Z,6.90
2018-07-07T06:47:28.525Z,7.20
2018-07-07T06:49:57.084Z,6.63
2018-07-07T06:52:25.592Z,6.97
2018-07-07T06:54:54.134Z,6.67
2018-07-07T06:57:22.648Z,6.90
2018-07-07T06:59:51.237Z,6.37
2018-07-07T07:02:19.773Z,6.77
2018-07-07T07:04:48.378Z,6.03
2018-07-07T07:07:16.888Z,6.47
2018-07-07T07:09:45.660Z,6.93
2018-07-07T07:12:14.217Z,7.27
2018-07-07T07:14:42.827Z,7.13
2018-07-07T07:17:11.404Z,5.50
2018-07-07T07:19:39.946Z,5.97
2018-07-07T07:22:08.470Z,6.60
2018-07-07T07:24:37.026Z,6.90
2018-07-07T07:27:05.636Z,6.90
2018-07-07T07:29:34.185Z,6.37
2018-07-07T07:32:02.755Z,7.40
2018-07-07T07:34:31.323Z,6.17
2018-07-07T07:36:59.899Z,6.57
2018-07-07T07:39:28.448Z,6.00
2018-07-07T07:41:56.994Z,6.20
2018-07-07T07:44:25.627Z,5.70
2018-07-07T07:46:54.159Z,6.33
2018-07-07T07:49:22.705Z,5.70
2018-07-07T08:08:39.247Z,5.27
2018-07-07T08:11:07.884Z,4.70
2018-07-07T08:13:36.616Z,4.17
2018-07-07T08:16:05.289Z,5.00
2018-07-07T08:18:34.087Z,4.67
2018-07-07T08:21:02.706Z,5.00
2018-07-07T08:23:31.284Z,4.37
2018-07-07T08:25:59.919Z,4.83
2018-07-07T08:28:28.570Z,5.07
2018-07-07T08:30:57.181Z,4.50
2018-07-07T08:33:25.732Z,4.50
2018-07-07T08:35:54.988Z,4.60
2018-07-07T08:38:23.537Z,5.30
2018-07-07T08:40:52.140Z,4.50
2018-07-07T08:43:21.283Z,4.67
2018-07-07T08:45:49.952Z,4.53
2018-07-07T08:48:18.555Z,4.53
2018-07-07T08:50:47.198Z,4.03
2018-07-07T08:53:15.817Z,4.57
2018-07-07T08:55:44.456Z,3.50
2018-07-07T09:15:00.057Z,3.93
2018-07-07T09:17:28.835Z,4.10
2018-07-07T09:19:57.342Z,3.80
2018-07-07T09:22:26.031Z,3.70
2018-07-07T09:24:54.735Z,3.60
2018-07-07T09:27:23.381Z,3.90
2018-07-07T09:46:34.111Z,3.87
2018-07-07T09:49:02.753Z,3.83
2018-07-07T09:51:31.417Z,3.40
2018-07-07T09:53:59.962Z,3.80
2018-07-07T09:56:28.525Z,3.30
2018-07-07T09:58:57.088Z,3.40
2018-07-07T10:01:25.678Z,3.07
2018-07-07T10:03:54.250Z,3.27
2018-07-07T10:06:22.804Z,3.53
2018-07-07T10:08:51.363Z,3.10
2018-07-07T10:11:19.969Z,3.73
2018-07-07T10:13:48.545Z,3.30
2018-07-07T10:16:17.113Z,3.60
2018-07-07T10:18:45.682Z,3.70
2018-07-07T10:21:14.257Z,3.27
2018-07-07T10:23:42.861Z,4.83
2018-07-07T10:26:11.433Z,3.87
2018-07-07T10:28:40.000Z,3.80
2018-07-07T10:31:08.636Z,3.27
2018-07-07T10:33:37.278Z,3.83
2018-07-07T10:36:06.158Z,3.53
2018-07-07T10:38:34.730Z,3.67
2018-07-07T10:41:03.270Z,3.67
2018-07-07T10:43:31.829Z,3.57
2018-07-07T10:46:00.489Z,3.90
2018-07-07T10:48:28.980Z,3.17
2018-07-07T10:50:57.686Z,3.27
2018-07-07T10:53:26.398Z,3.60
2018-07-07T10:55:55.147Z,3.53
2018-07-07T10:58:23.752Z,3.00
2018-07-07T11:00:52.449Z,3.40
2018-07-07T11:03:20.678Z,3.17
2018-07-07T11:05:49.348Z,3.00
2018-07-07T11:08:17.995Z,3.13
2018-07-07T11:10:46.671Z,3.20
2018-07-07T11:13:15.305Z,2.83
2018-07-07T11:15:44.028Z,3.13
2018-07-07T11:18:12.793Z,3.30
2018-07-07T11:20:41.462Z,2.83
2018-07-07T11:23:09.663Z,3.27
2018-07-07T11:25:38.310Z,3.23
2018-07-07T11:28:06.901Z,3.13
2018-07-07T11:30:35.534Z,2.70
2018-07-07T11:33:04.126Z,2.87
2018-07-07T11:35:32.849Z,2.70
2018-07-07T11:38:01.434Z,3.20
2018-07-07T11:40:30.051Z,3.03
2018-07-07T11:42:58.591Z,3.03
2018-07-07T11:45:27.169Z,2.90
2018-07-07T11:47:55.765Z,2.70
2018-07-07T11:50:24.404Z,3.17
2018-07-07T11:52:53.011Z,2.60
2018-07-07T11:55:21.594Z,3.63
2018-07-07T11:57:50.168Z,3.03
2018-07-07T12:00:18.775Z,2.83
2018-07-07T12:02:47.405Z,3.20
2018-07-07T12:05:16.080Z,3.10
2018-07-07T12:07:44.637Z,3.43
2018-07-07T12:10:13.325Z,2.83
2018-07-07T12:12:41.950Z,3.13
2018-07-07T12:15:10.625Z,3.40
2018-07-07T12:17:39.301Z,3.50
2018-07-07T12:20:07.908Z,2.97
2018-07-07T12:22:36.500Z,2.70
2018-07-07T12:25:05.083Z,2.60
2018-07-07T12:27:33.593Z,2.80
2018-07-07T12:30:02.184Z,3.23
2018-07-07T12:32:30.694Z,2.70
2018-07-07T12:34:59.250Z,3.07
2018-07-07T12:37:27.774Z,2.97
2018-07-07T12:39:56.415Z,3.23
2018-07-07T12:42:24.980Z,3.00
2018-07-07T12:44:53.622Z,3.00
2018-07-07T12:47:23.074Z,2.97
2018-07-07T12:49:51.726Z,3.30
2018-07-07T12:52:20.236Z,2.97
2018-07-07T12:54:48.897Z,3.40
2018-07-07T12:57:17.467Z,3.10
2018-07-07T12:59:46.015Z,3.37
2018-07-07T13:02:14.535Z,3.47
2018-07-07T13:04:43.092Z,3.20
2018-07-07T13:07:11.624Z,2.90
2018-07-07T13:09:40.180Z,2.70
2018-07-07T13:12:08.731Z,2.90
2018-07-07T13:14:37.440Z,2.83
2018-07-07T13:17:06.179Z,3.13
2018-07-07T13:19:34.781Z,2.77
2018-07-07T13:22:03.345Z,3.20
2018-07-07T13:24:31.951Z,2.40
2018-07-07T13:27:00.492Z,2.37
2018-07-07T13:29:29.069Z,2.93
2018-07-07T13:31:57.699Z,2.90
2018-07-07T13:34:26.346Z,3.17
2018-07-07T13:36:54.883Z,2.80
2018-07-07T13:39:23.474Z,3.07
2018-07-07T13:41:52.006Z,3.60
2018-07-07T13:44:20.707Z,2.77
2018-07-07T13:46:49.417Z,2.87
2018-07-07T13:49:18.105Z,2.97
2018-07-07T13:51:46.667Z,2.73
2018-07-07T13:54:15.560Z,3.10
2018-07-07T13:56:44.154Z,3.10
2018-07-07T13:59:12.917Z,2.60
2018-07-07T14:01:41.511Z,3.03
2018-07-07T14:04:10.177Z,3.13
2018-07-07T14:06:38.711Z,2.53
2018-07-07T14:09:07.835Z,2.40
2018-07-07T14:11:36.595Z,2.53
2018-07-07T14:14:05.537Z,3.23
2018-07-07T14:16:34.162Z,2.90
2018-07-07T14:19:02.770Z,2.50
2018-07-07T14:21:31.309Z,2.67
2018-07-07T14:23:59.880Z,2.90
2018-07-07T14:26:28.485Z,2.67
2018-07-07T14:28:57.336Z,2.90
2018-07-07T14:31:25.862Z,2.60
2018-07-07T14:33:54.049Z,2.43
2018-07-07T14:36:22.612Z,2.70
2018-07-07T14:38:51.200Z,2.90
2018-07-07T14:41:21.125Z,2.60
2018-07-07T14:44:05.777Z,3.00
2018-07-07T14:46:35.157Z,2.97
2018-07-07T14:49:03.712Z,2.80
2018-07-07T14:51:32.590Z,2.93
2018-07-07T14:54:01.113Z,2.97
2018-07-07T14:56:29.928Z,2.60
2018-07-07T15:15:48.841Z,2.63
2018-07-07T15:18:17.382Z,2.70
2018-07-07T15:20:45.983Z,2.87
2018-07-07T15:23:14.614Z,2.60
2018-07-07T15:25:43.267Z,2.53
2018-07-07T15:28:11.867Z,2.47
2018-07-07T15:30:40.658Z,2.97
2018-07-07T15:33:09.329Z,3.23
2018-07-07T15:35:37.953Z,2.40
2018-07-07T15:38:06.498Z,2.90
2018-07-07T15:40:35.542Z,2.73
2018-07-07T15:43:04.179Z,2.10
2018-07-07T15:45:32.764Z,2.47
2018-07-07T15:48:01.335Z,2.77
2018-07-07T15:50:29.894Z,2.60
2018-07-07T15:52:58.797Z,2.67
2018-07-07T15:55:27.413Z,2.40
2018-07-07T15:57:55.948Z,2.53
2018-07-07T16:00:24.557Z,2.67
2018-07-07T16:02:53.398Z,2.90
2018-07-07T16:05:21.987Z,2.20
2018-07-07T16:07:50.502Z,2.60
2018-07-07T16:10:19.116Z,2.67
2018-07-07T16:12:47.665Z,2.50
2018-07-07T16:15:16.313Z,2.90
2018-07-07T16:17:44.878Z,3.27
2018-07-07T16:20:13.469Z,3.00
2018-07-07T16:22:41.975Z,2.67
2018-07-07T16:25:10.504Z,3.10
2018-07-07T16:27:39.068Z,2.67
2018-07-07T16:30:07.646Z,2.70
2018-07-07T16:32:36.187Z,2.83
2018-07-07T16:35:04.823Z,2.70
2018-07-07T16:37:33.496Z,2.40
2018-07-07T16:40:02.206Z,2.67
2018-07-07T16:42:30.855Z,2.57
2018-07-07T16:44:59.843Z,2.40
2018-07-07T16:47:28.421Z,2.33
2018-07-07T16:49:57.202Z,2.03
2018-07-07T16:52:26.000Z,2.30
2018-07-07T16:54:54.622Z,2.60
2018-07-07T16:57:24.884Z,2.33
2018-07-07T16:59:54.139Z,2.63
2018-07-07T17:02:22.700Z,2.33
2018-07-07T17:04:51.362Z,2.40
2018-07-07T17:07:19.986Z,2.47
2018-07-07T17:09:49.177Z,2.43
2018-07-07T17:12:17.805Z,2.80
2018-07-07T17:14:46.404Z,2.40
2018-07-07T17:17:14.976Z,2.57
2018-07-07T17:19:44.141Z,2.43
2018-07-07T17:22:12.924Z,2.50
2018-07-07T17:24:41.778Z,2.60
2018-07-07T17:27:10.371Z,2.20
2018-07-07T17:29:39.211Z,2.90
2018-07-07T17:32:08.189Z,2.93
2018-07-07T17:34:36.777Z,2.90
2018-07-07T17:37:06.142Z,2.50
2018-07-07T17:39:35.071Z,3.30
2018-07-07T17:42:03.820Z,2.60
2018-07-07T17:44:32.607Z,2.60
2018-07-07T17:47:01.227Z,2.83
2018-07-07T17:49:30.103Z,2.20
2018-07-07T17:51:59.287Z,2.70
2018-07-07T17:54:28.013Z,2.77
2018-07-07T17:56:56.651Z,2.10
2018-07-07T17:59:25.355Z,2.33
2018-07-07T18:01:54.217Z,2.97
2018-07-07T18:04:22.809Z,2.70
2018-07-07T18:06:51.455Z,3.00
2018-07-07T18:09:20.062Z,2.70
2018-07-07T18:11:48.750Z,3.27
2018-07-07T18:14:17.451Z,3.03
2018-07-07T18:16:46.038Z,2.57
2018-07-07T18:19:14.799Z,2.80
2018-07-07T18:21:43.540Z,2.33
2018-07-07T18:24:12.158Z,2.53
2018-07-07T18:26:40.787Z,2.60
2018-07-07T18:29:09.398Z,2.70
2018-07-07T18:31:38.042Z,2.10
2018-07-07T18:34:06.663Z,2.40
2018-07-07T18:36:35.226Z,2.07
2018-07-07T18:39:04.828Z,2.00
2018-07-07T18:41:33.506Z,2.30
2018-07-07T18:44:02.115Z,2.33
2018-07-07T18:46:30.689Z,2.10
2018-07-07T18:48:59.323Z,2.50
2018-07-07T18:51:27.883Z,2.53
2018-07-07T18:53:56.449Z,2.40
2018-07-07T18:56:25.136Z,2.60
2018-07-07T18:58:53.738Z,2.50
2018-07-07T19:01:22.394Z,2.50
2018-07-07T19:03:51.069Z,2.90
2018-07-07T19:06:19.647Z,3.13
2018-07-07T19:08:48.298Z,2.47
2018-07-07T19:11:16.950Z,2.90
2018-07-07T19:13:45.542Z,3.00
2018-07-07T19:16:14.175Z,2.67
2018-07-07T19:18:42.745Z,3.03
2018-07-07T19:21:16.781Z,3.10
2018-07-07T19:23:50.535Z,2.80
2018-07-07T19:26:24.465Z,3.10
2018-07-07T19:28:53.088Z,3.47
2018-07-07T19:31:21.670Z,3.33
2018-07-07T19:33:55.528Z,2.40
2018-07-07T19:36:29.010Z,2.40
2018-07-07T19:38:57.775Z,2.70
2018-07-07T19:41:26.388Z,2.60
2018-07-07T19:43:54.951Z,2.30
2018-07-07T19:46:23.558Z,2.40
2018-07-07T19:48:52.164Z,2.30
2018-07-07T19:51:20.733Z,2.60
2018-07-07T19:53:49.354Z,2.30
2018-07-07T19:56:17.951Z,2.20
2018-07-07T19:58:46.653Z,2.40
2018-07-07T20:01:15.292Z,2.13
2018-07-07T20:03:43.843Z,2.37
2018-07-07T20:06:12.411Z,2.23
2018-07-07T20:08:40.961Z,2.10
2018-07-07T20:11:09.557Z,2.10
2018-07-07T20:13:38.135Z,2.50
2018-07-07T20:16:09.136Z,2.37
2018-07-07T20:18:51.915Z,2.53
2018-07-07T20:22:03.925Z,2.20
2018-07-07T20:24:34.771Z,2.47
2018-07-07T20:27:08.644Z,2.60
2018-07-07T20:29:37.255Z,2.30
2018-07-07T20:32:11.097Z,2.20
2018-07-07T20:34:39.716Z,2.70
2018-07-07T20:37:08.443Z,2.50
2018-07-07T20:39:37.078Z,2.27
2018-07-07T20:42:05.869Z,2.33
2018-07-07T20:44:34.545Z,2.40
2018-07-07T20:47:03.080Z,1.90
2018-07-07T20:49:31.652Z,2.33
2018-07-07T20:52:00.202Z,2.73
2018-07-07T20:54:28.726Z,2.33
2018-07-07T20:56:57.279Z,2.53
2018-07-07T20:59:25.875Z,2.50
2018-07-07T21:01:54.163Z,2.33
2018-07-07T21:04:22.768Z,2.73
2018-07-07T21:06:51.424Z,2.87
2018-07-07T21:09:20.138Z,2.73
2018-07-07T21:11:48.694Z,2.93
2018-07-07T21:14:17.211Z,2.37
2018-07-07T21:16:45.771Z,2.50
2018-07-07T21:19:14.374Z,2.27
2018-07-07T21:21:42.981Z,2.30
2018-07-07T21:24:11.553Z,2.37
2018-07-07T21:26:40.102Z,2.63
2018-07-07T21:29:08.712Z,2.57
2018-07-07T21:31:37.316Z,2.43
2018-07-07T21:34:06.053Z,3.00
2018-07-07T21:36:34.646Z,2.80
2018-07-07T21:39:03.457Z,2.53
2018-07-07T21:41:32.019Z,2.60
2018-07-07T21:44:00.607Z,2.73
2018-07-07T21:46:29.161Z,2.67
2018-07-07T21:48:57.730Z,2.40
2018-07-07T21:51:26.406Z,2.50
2018-07-07T21:53:55.154Z,2.37
2018-07-07T21:56:23.655Z,2.43
2018-07-07T21:58:57.699Z,2.73
2018-07-07T22:21:16.419Z,2.77
2018-07-07T22:23:45.015Z,2.60
2018-07-07T22:26:13.980Z,2.90
2018-07-07T22:28:42.695Z,2.77
2018-07-07T22:31:11.256Z,2.60
2018-07-07T22:33:39.947Z,2.40
2018-07-07T22:36:13.889Z,2.80
2018-07-07T22:38:47.872Z,2.70
2018-07-07T22:41:16.414Z,3.53
2018-07-07T22:43:44.959Z,2.60
2018-07-07T22:46:13.552Z,2.67
2018-07-07T22:48:42.157Z,3.00
2018-07-07T22:51:10.754Z,3.00
2018-07-07T22:53:39.462Z,2.93
2018-07-07T22:56:08.066Z,2.63
2018-07-07T22:58:36.677Z,2.80
2018-07-07T23:01:05.240Z,2.77
2018-07-07T23:03:33.785Z,3.60
2018-07-07T23:06:02.295Z,4.60
2018-07-07T23:08:30.818Z,4.60
2018-07-07T23:10:59.378Z,5.23
2018-07-07T23:13:28.000Z,5.73
2018-07-07T23:15:56.571Z,5.60
2018-07-07T23:18:25.143Z,5.50
2018-07-07T23:20:53.716Z,6.33
2018-07-07T23:23:22.292Z,6.37
2018-07-07T23:25:50.955Z,5.40
2018-07-07T23:28:19.529Z,6.17
2018-07-07T23:30:48.431Z,6.77
2018-07-07T23:33:16.979Z,7.03
2018-07-07T23:35:45.521Z,6.70
2018-07-07T23:38:14.126Z,6.53
2018-07-07T23:40:42.707Z,6.10
2018-07-07T23:43:11.341Z,6.43
2018-07-07T23:45:39.915Z,5.97
2018-07-07T23:48:08.545Z,6.10
2018-07-07T23:50:37.043Z,5.90
2018-07-07T23:53:05.654Z,5.33
2018-07-07T23:55:34.196Z,5.17
2018-07-07T23:58:02.769Z,5.07
